Hauptseite
METAR-TAF:

METAR-TAF

Flughäfen :

Flughafen Odessa

Odessa, Ukraine

Breite: 46-26N, Länge: 030-46E, Höhe: 42 m

Beobachtung

Neuester Wetterbericht von vor 39 Minuten, um 03:30 UTC
Wind 4 kt aus Nord
Temperatur 7°C
Luftfeuchtigkeit 57%
Luftdruck 1005 hPa
Sichtweite 10 km oder mehr
keine Wolken unter 1500 m und keine Kumulonimbus oder Gewitterwolken

METAR: UKOO 290330Z 01002MPS CAVOK 07/M01 Q1005 R34/090060 NOSIG

Zeit: 07:09 (04:09 UTC)

Prognose

Neuester Wetterbericht von vor 5 Stunden und 4 Minuten, um 23:05 UTC
Gültige Prognose vom 29 um 00 UTC bis 29 um 24 UTC
Wind 6 kt aus Nord
Sichtweite: 6000 m
Durchbrochene Bewölkung in der Höhe von 700 ft
Aufgelockert bewölkt in der Höhe von 2000 ft, Kumulonimbus.
Übergehend zu
vom 29 um 12 UTC bis 29 um 13 UTC
Wind 6 kt aus West/Nordwest

TAF: UKOO 282305Z 2900/2924 36003MPS 6000 BKN007 SCT020CB BECMG 2912/2913 30003MPS

Wetterbeobachtungen und Prognosen von mehr als 4000 Flughäfen (METAR und TAF Bericht).

Die verfügbaren Stationen werden durch gelbe und rote Markierungen auf der Karte dargestellt.

Führen Sie die Maus auf sie, um den Namen der Station zu sehen.

Darauf klicken, um die Beobachtung von Wetterbeobachtungen und Prognosen zu sehen.

Um die Karte zu ändern : klicken Sie auf den grünen Tasten mit einem schwarzen Kreuz Zum Vergrößern, auf den grünen Button mit einem Gedankenstrich zu verkleinern, oder auf die grünen Pfeile für benachbarte Karten.


METAR-TAF: